Time;durP1;ratioP1;P1;durP2;ratioP2;P2;SDS_P1;SDS_P2;PMS_P1;PMS_P2;Temp;Humidity;BMP_temperature;BMP_pressure;BME280_temperature;BME280_humidity;BME280_pressure;Samples;Min_cycle;Max_cycle;Signal;HPM_P1;HPM_P2
2022/05/14 00:01:27;;;;;;;8.40;1.40;;;11.30;99.90;;;;;;4967217;28;20042;-83
2022/05/14 00:03:52;;;;;;;9.27;1.30;;;11.30;99.90;;;;;;4966700;28;20022;-85
2022/05/14 00:06:21;;;;;;;7.30;1.33;;;11.20;99.90;;;;;;4969460;28;20125;-84
2022/05/14 00:08:47;;;;;;;18.65;1.50;;;11.20;99.90;;;;;;4971266;28;20038;-84
2022/05/14 00:13:57;;;;;;;10.30;1.35;;;10.90;99.90;;;;;;4984391;28;20037;-85
2022/05/14 00:16:25;;;;;;;11.05;1.50;;;10.80;99.90;;;;;;4969378;28;20026;-84
2022/05/14 00:18:52;;;;;;;9.23;1.52;;;10.70;99.90;;;;;;4967444;28;20046;-85
2022/05/14 00:21:19;;;;;;;9.90;1.75;;;10.60;99.90;;;;;;4986306;28;20450;-85
2022/05/14 00:23:45;;;;;;;6.70;2.03;;;10.60;99.90;;;;;;4969310;28;20566;-84
2022/05/14 00:26:11;;;;;;;12.27;2.15;;;10.60;99.90;;;;;;4965591;28;20057;-85
2022/05/14 00:28:36;;;;;;;12.73;2.63;;;10.60;99.90;;;;;;4970427;28;20029;-85
2022/05/14 00:31:02;;;;;;;11.02;1.70;;;10.60;99.90;;;;;;4971442;28;20493;-85
2022/05/14 00:33:28;;;;;;;9.02;2.03;;;10.60;99.90;;;;;;4969480;28;20030;-85
2022/05/14 00:35:53;;;;;;;8.52;1.63;;;10.60;99.90;;;;;;4969186;28;20546;-83
2022/05/14 00:38:19;;;;;;;9.63;1.90;;;10.60;99.90;;;;;;4974153;28;20529;-85
2022/05/14 00:40:48;;;;;;;9.75;1.80;;;10.50;99.90;;;;;;4990196;28;20030;-85
2022/05/14 00:43:15;;;;;;;5.45;1.90;;;10.50;99.90;;;;;;4968923;28;20031;-85
2022/05/14 00:45:47;;;;;;;10.07;1.98;;;10.50;99.90;;;;;;4975571;28;20041;-85
2022/05/14 00:48:13;;;;;;;5.30;1.75;;;10.50;99.90;;;;;;4974313;28;20113;-85
2022/05/14 00:50:44;;;;;;;12.25;2.63;;;10.50;99.90;;;;;;4973895;28;20503;-85
2022/05/14 00:53:20;;;;;;;9.25;1.67;;;10.40;99.90;;;;;;4972310;28;20109;-84
2022/05/14 00:55:50;;;;;;;9.07;2.40;;;10.40;99.90;;;;;;4969813;28;20045;-85
2022/05/14 00:58:48;;;;;;;13.60;2.45;;;10.40;99.90;;;;;;4966320;28;20050;-85
2022/05/14 01:01:14;;;;;;;10.98;2.05;;;10.40;99.90;;;;;;4982436;28;20038;-85
2022/05/14 01:03:39;;;;;;;10.93;2.13;;;10.40;99.90;;;;;;4969184;28;20019;-85
2022/05/14 01:06:08;;;;;;;6.13;2.08;;;10.40;99.90;;;;;;4967037;28;20023;-84
2022/05/14 01:08:35;;;;;;;4.90;1.25;;;10.30;99.90;;;;;;4975028;28;20019;-84
2022/05/14 01:11:01;;;;;;;11.88;1.85;;;10.40;99.90;;;;;;4971369;28;20077;-85
2022/05/14 01:13:27;;;;;;;8.55;1.60;;;10.30;99.90;;;;;;4973910;28;20030;-84
2022/05/14 01:15:58;;;;;;;10.65;2.05;;;10.30;99.90;;;;;;4972302;28;20085;-85
2022/05/14 01:18:26;;;;;;;14.65;1.73;;;10.30;99.90;;;;;;4967106;28;20034;-85
2022/05/14 01:20:57;;;;;;;3.85;1.63;;;10.20;99.90;;;;;;4968786;28;20042;-84
2022/05/14 01:26:30;;;;;;;6.78;1.70;;;10.20;99.90;;;;;;4982620;28;20040;-85
2022/05/14 01:28:57;;;;;;;6.10;1.05;;;10.10;99.90;;;;;;4974557;28;20023;-85
2022/05/14 01:31:24;;;;;;;7.20;1.45;;;10.10;99.90;;;;;;4970862;28;20486;-85
2022/05/14 01:33:49;;;;;;;8.30;1.40;;;10.10;99.90;;;;;;4985992;28;20038;-86
2022/05/14 01:36:15;;;;;;;4.35;0.90;;;10.10;99.90;;;;;;4986914;28;20034;-85
2022/05/14 01:38:41;;;;;;;9.27;1.35;;;10.20;99.90;;;;;;4982312;28;20038;-85
2022/05/14 01:41:07;;;;;;;12.45;1.63;;;10.10;99.90;;;;;;4965106;28;20046;-85
2022/05/14 01:43:32;;;;;;;6.53;1.13;;;10.10;99.90;;;;;;4971721;28;20022;-86
2022/05/14 01:45:58;;;;;;;5.90;1.10;;;10.10;99.90;;;;;;4969898;28;20399;-85
2022/05/14 01:48:24;;;;;;;5.82;1.00;;;10.20;99.90;;;;;;4971381;28;20027;-85
2022/05/14 01:50:50;;;;;;;4.97;1.30;;;10.20;99.90;;;;;;4969786;28;20043;-85
2022/05/14 01:53:15;;;;;;;5.93;1.23;;;10.20;99.90;;;;;;4985668;28;20030;-85
2022/05/14 01:55:41;;;;;;;4.85;1.25;;;10.10;99.90;;;;;;4972102;28;20037;-85
2022/05/14 02:00:51;;;;;;;7.60;1.42;;;10.10;99.90;;;;;;4987942;28;20085;-84
2022/05/14 02:03:17;;;;;;;8.10;1.80;;;10.10;99.90;;;;;;4971281;28;20050;-84
2022/05/14 02:05:42;;;;;;;9.48;1.88;;;10.00;99.90;;;;;;4969670;28;20390;-85
2022/05/14 02:08:08;;;;;;;9.95;1.35;;;10.00;99.90;;;;;;4970693;28;20129;-85
2022/05/14 02:10:33;;;;;;;8.63;1.33;;;9.90;99.90;;;;;;4964296;28;20031;-84
2022/05/14 02:12:59;;;;;;;8.80;1.67;;;9.90;99.90;;;;;;4969243;28;20030;-85
2022/05/14 02:15:24;;;;;;;6.95;1.50;;;9.80;99.90;;;;;;4971794;28;20022;-85
2022/05/14 02:17:50;;;;;;;10.23;1.30;;;9.80;99.90;;;;;;4970456;28;20054;-85
2022/05/14 02:20:16;;;;;;;9.43;1.85;;;9.80;99.90;;;;;;4965339;28;20410;-85
2022/05/14 02:22:42;;;;;;;7.30;1.90;;;9.80;99.90;;;;;;4970318;28;20101;-85
2022/05/14 02:25:09;;;;;;;8.20;1.77;;;9.70;99.90;;;;;;4970599;28;20030;-85
2022/05/14 02:27:35;;;;;;;11.10;1.98;;;9.70;99.90;;;;;;4972832;28;20084;-85
2022/05/14 02:30:01;;;;;;;7.85;1.40;;;9.70;99.90;;;;;;4972093;28;20022;-85
2022/05/14 02:32:27;;;;;;;8.43;1.92;;;9.70;99.90;;;;;;4969757;28;20037;-85
2022/05/14 02:34:53;;;;;;;6.78;1.60;;;9.70;99.90;;;;;;4971654;28;20026;-84
2022/05/14 02:37:23;;;;;;;6.25;1.52;;;9.70;99.90;;;;;;4971288;28;20413;-83
2022/05/14 02:39:50;;;;;;;6.65;1.77;;;9.70;99.90;;;;;;4968914;28;20018;-85
2022/05/14 02:42:16;;;;;;;7.82;1.90;;;9.70;99.90;;;;;;4970422;28;20027;-85
2022/05/14 02:44:42;;;;;;;9.25;2.15;;;9.60;99.90;;;;;;4983429;28;20093;-84
2022/05/14 02:47:08;;;;;;;12.00;2.22;;;9.60;99.90;;;;;;4969819;28;20038;-85
2022/05/14 02:49:34;;;;;;;6.60;1.73;;;9.60;99.90;;;;;;4987917;28;20052;-84
2022/05/14 02:52:00;;;;;;;7.45;2.00;;;9.60;99.90;;;;;;4985697;28;20360;-85
2022/05/14 02:54:25;;;;;;;9.13;1.50;;;9.60;99.90;;;;;;4969641;28;20061;-85
2022/05/14 02:56:51;;;;;;;6.95;2.33;;;9.50;99.90;;;;;;4969657;28;20458;-85
2022/05/14 02:59:17;;;;;;;6.05;2.15;;;9.50;99.90;;;;;;4981339;28;20466;-85
2022/05/14 03:01:48;;;;;;;7.57;2.08;;;9.40;99.90;;;;;;4968646;28;20038;-85
2022/05/14 03:04:37;;;;;;;6.03;2.00;;;9.50;99.90;;;;;;4967376;28;21635;-85
2022/05/14 03:07:05;;;;;;;9.48;2.47;;;9.50;99.90;;;;;;4971264;28;20030;-84
2022/05/14 03:09:31;;;;;;;10.30;1.83;;;9.40;99.90;;;;;;4970248;28;20065;-85
2022/05/14 03:11:56;;;;;;;8.05;2.47;;;9.40;99.90;;;;;;4971880;28;20486;-85
2022/05/14 03:14:22;;;;;;;11.45;2.90;;;9.30;99.90;;;;;;4967708;28;20044;-85
2022/05/14 03:16:48;;;;;;;6.88;2.25;;;9.30;99.90;;;;;;4965854;28;20030;-85
2022/05/14 03:19:14;;;;;;;8.45;2.38;;;9.30;99.90;;;;;;4964762;28;20065;-85
2022/05/14 03:21:39;;;;;;;8.65;2.83;;;9.30;99.90;;;;;;4970112;28;20045;-86
2022/05/14 03:24:06;;;;;;;8.20;3.03;;;9.30;99.90;;;;;;4964318;28;20043;-85
2022/05/14 03:26:31;;;;;;;10.73;2.53;;;9.30;99.90;;;;;;4983583;28;20109;-85
2022/05/14 03:28:57;;;;;;;7.70;2.38;;;9.30;99.90;;;;;;4961392;28;20056;-85
2022/05/14 03:31:23;;;;;;;13.43;3.30;;;9.20;99.90;;;;;;4967921;28;20386;-85
2022/05/14 03:33:48;;;;;;;12.57;2.95;;;9.20;99.90;;;;;;4969404;28;20027;-85
2022/05/14 03:36:14;;;;;;;8.60;2.97;;;9.20;99.90;;;;;;4969833;28;20081;-85
2022/05/14 03:38:39;;;;;;;10.75;3.10;;;9.10;99.90;;;;;;4966803;28;20022;-85
2022/05/14 03:41:05;;;;;;;12.95;2.88;;;9.10;99.90;;;;;;4966251;28;20046;-85
2022/05/14 03:43:32;;;;;;;12.00;3.20;;;9.10;99.90;;;;;;4962083;28;20486;-85
2022/05/14 03:45:58;;;;;;;7.07;3.08;;;9.00;99.90;;;;;;4962228;28;20395;-85
2022/05/14 03:48:24;;;;;;;12.02;4.28;;;9.00;99.90;;;;;;4967038;28;20018;-84
2022/05/14 03:50:49;;;;;;;14.07;3.63;;;9.00;99.90;;;;;;4969782;28;20030;-84
2022/05/14 03:53:15;;;;;;;10.40;3.08;;;9.00;99.90;;;;;;4963873;28;20026;-86
2022/05/14 03:55:40;;;;;;;10.40;3.03;;;8.90;99.90;;;;;;4962334;28;20039;-84
2022/05/14 03:58:06;;;;;;;10.43;3.15;;;8.90;99.90;;;;;;4964170;28;20376;-85
2022/05/14 04:00:32;;;;;;;10.75;3.17;;;8.90;99.90;;;;;;4968973;28;20069;-85
2022/05/14 04:02:57;;;;;;;14.70;3.50;;;8.90;99.90;;;;;;4973174;28;20030;-85
2022/05/14 04:05:23;;;;;;;13.13;3.08;;;8.90;99.90;;;;;;4967724;28;20037;-84
2022/05/14 04:07:48;;;;;;;10.73;3.13;;;8.90;99.90;;;;;;4974635;28;20035;-85
2022/05/14 04:10:18;;;;;;;9.63;3.08;;;8.90;99.90;;;;;;4976227;28;20479;-85
2022/05/14 04:12:44;;;;;;;10.82;3.03;;;8.90;99.90;;;;;;4985551;28;20027;-84
2022/05/14 04:15:11;;;;;;;8.07;2.78;;;8.90;99.90;;;;;;4963245;28;20030;-85
2022/05/14 04:17:37;;;;;;;7.97;3.60;;;8.90;99.90;;;;;;4966063;28;20495;-85
2022/05/14 04:20:03;;;;;;;7.85;2.92;;;9.00;99.90;;;;;;4972936;28;20120;-85
2022/05/14 04:22:29;;;;;;;11.75;3.40;;;8.90;99.90;;;;;;4971729;28;20022;-84
2022/05/14 04:24:55;;;;;;;12.65;4.10;;;9.00;99.90;;;;;;4976098;28;20022;-85
2022/05/14 04:27:20;;;;;;;14.18;3.90;;;9.00;99.90;;;;;;4967919;28;20027;-85
2022/05/14 04:29:46;;;;;;;12.65;3.53;;;9.00;99.90;;;;;;4971582;28;20041;-85
2022/05/14 04:32:11;;;;;;;12.80;3.53;;;9.00;99.90;;;;;;4973514;28;20122;-86
2022/05/14 04:34:37;;;;;;;13.13;3.63;;;9.00;99.90;;;;;;4974558;28;20183;-85
2022/05/14 04:37:03;;;;;;;13.25;3.67;;;9.10;99.90;;;;;;4965912;28;20057;-85
2022/05/14 04:39:34;;;;;;;10.40;3.45;;;9.10;99.90;;;;;;4974430;28;20027;-85
2022/05/14 04:42:01;;;;;;;8.52;3.38;;;9.10;99.90;;;;;;4971683;28;20038;-84
2022/05/14 04:44:28;;;;;;;12.90;3.63;;;9.10;99.90;;;;;;4966137;28;20430;-85
2022/05/14 04:46:54;;;;;;;12.30;3.95;;;9.20;99.90;;;;;;4972663;28;20022;-85
2022/05/14 04:49:19;;;;;;;11.32;3.90;;;9.20;99.90;;;;;;4967709;28;20471;-85
2022/05/14 04:51:45;;;;;;;9.95;3.78;;;9.30;99.90;;;;;;4959363;28;20126;-84
2022/05/14 04:54:11;;;;;;;10.85;4.25;;;9.30;99.90;;;;;;4967925;28;20104;-86
2022/05/14 04:56:37;;;;;;;14.40;4.40;;;9.40;99.90;;;;;;4972036;28;20114;-86
2022/05/14 04:59:03;;;;;;;14.18;4.80;;;9.50;99.90;;;;;;4965414;28;20077;-85
2022/05/14 05:01:28;;;;;;;14.05;4.50;;;9.50;99.90;;;;;;4968732;28;20038;-85
2022/05/14 05:03:54;;;;;;;10.60;4.10;;;9.60;99.90;;;;;;4967790;28;20049;-85
2022/05/14 05:06:23;;;;;;;10.27;4.18;;;9.70;99.90;;;;;;4951847;28;20090;-85
2022/05/14 05:08:51;;;;;;;14.80;4.63;;;9.70;99.90;;;;;;4948398;28;20034;-85
2022/05/14 05:11:18;;;;;;;11.45;4.20;;;9.80;99.90;;;;;;4947784;28;20200;-85
2022/05/14 05:13:43;;;;;;;13.15;4.82;;;9.90;99.90;;;;;;4948770;28;20049;-86
2022/05/14 05:16:09;;;;;;;16.73;5.07;;;10.00;99.90;;;;;;4945272;28;20027;-86
2022/05/14 05:18:35;;;;;;;15.20;5.72;;;10.00;99.90;;;;;;4959986;28;20055;-85
2022/05/14 05:21:01;;;;;;;8.95;5.43;;;10.20;99.90;;;;;;4966991;28;20407;-85
2022/05/14 05:23:27;;;;;;;12.57;5.05;;;10.50;99.90;;;;;;4964978;28;20043;-86
2022/05/14 05:25:55;;;;;;;15.25;5.68;;;10.80;99.90;;;;;;4965659;28;20026;-86
2022/05/14 05:28:21;;;;;;;9.88;4.25;;;11.20;99.90;;;;;;4961050;28;20115;-86
2022/05/14 05:30:47;;;;;;;10.32;5.20;;;11.50;99.90;;;;;;4960282;28;20121;-87
2022/05/14 05:33:17;;;;;;;14.73;4.68;;;11.90;99.90;;;;;;4963234;28;20940;-85
2022/05/14 05:35:43;;;;;;;15.90;4.97;;;12.20;99.90;;;;;;4959300;28;20392;-85
2022/05/14 05:38:09;;;;;;;11.27;5.38;;;12.40;99.90;;;;;;4971235;28;20027;-85
2022/05/14 05:40:34;;;;;;;14.90;5.78;;;12.60;99.90;;;;;;4961502;28;20074;-86
2022/05/14 05:43:00;;;;;;;17.58;5.63;;;12.60;99.90;;;;;;4969737;28;20526;-85
2022/05/14 05:45:26;;;;;;;12.75;5.97;;;12.70;99.90;;;;;;4961740;28;20391;-86
2022/05/14 05:47:51;;;;;;;18.02;6.00;;;12.70;99.90;;;;;;4961183;28;20031;-85
2022/05/14 05:50:17;;;;;;;17.33;6.75;;;12.80;99.90;;;;;;4971088;28;20030;-86
2022/05/14 05:52:43;;;;;;;17.65;5.65;;;12.90;99.90;;;;;;4974388;28;20037;-86
2022/05/14 05:57:53;;;;;;;18.23;5.93;;;13.00;99.90;;;;;;4966068;28;20109;-86
2022/05/14 06:00:21;;;;;;;14.32;6.20;;;13.00;99.90;;;;;;4968686;28;20034;-86
2022/05/14 06:02:47;;;;;;;11.95;6.00;;;13.10;99.90;;;;;;4971089;28;20042;-86
2022/05/14 06:05:14;;;;;;;13.93;6.93;;;13.20;99.90;;;;;;4955606;28;20039;-85
2022/05/14 06:07:40;;;;;;;13.85;6.68;;;13.20;99.90;;;;;;4966162;28;20054;-86
2022/05/14 06:10:10;;;;;;;15.73;6.93;;;13.30;99.90;;;;;;4963252;28;20023;-85
2022/05/14 06:12:38;;;;;;;18.98;8.10;;;13.40;99.90;;;;;;4961783;28;20579;-85
2022/05/14 06:15:05;;;;;;;11.77;7.30;;;13.50;99.90;;;;;;4971632;28;20056;-85
2022/05/14 06:17:30;;;;;;;17.58;7.85;;;13.50;99.90;;;;;;4973094;28;20026;-85
2022/05/14 06:19:56;;;;;;;16.38;8.00;;;13.60;99.90;;;;;;4960835;28;20033;-85
2022/05/14 06:22:22;;;;;;;22.63;7.90;;;13.60;99.90;;;;;;4972284;28;20039;-86
2022/05/14 06:24:48;;;;;;;23.83;9.23;;;13.70;99.90;;;;;;4969832;28;20018;-85
2022/05/14 06:27:13;;;;;;;17.75;8.70;;;13.90;99.90;;;;;;4968170;28;20041;-86
2022/05/14 06:29:39;;;;;;;18.60;8.90;;;13.90;99.90;;;;;;4962585;28;20034;-85
2022/05/14 06:32:05;;;;;;;17.75;8.50;;;13.90;99.90;;;;;;4967786;28;20105;-85
2022/05/14 06:34:30;;;;;;;21.35;8.35;;;13.90;99.90;;;;;;4966244;28;20490;-85
2022/05/14 06:36:56;;;;;;;21.90;9.32;;;14.00;99.90;;;;;;4984037;28;20031;-86
2022/05/14 06:39:22;;;;;;;16.48;8.43;;;14.10;99.90;;;;;;4973529;28;20030;-85
2022/05/14 06:41:48;;;;;;;20.50;9.02;;;14.10;99.90;;;;;;4975423;28;20048;-84
2022/05/14 06:44:14;;;;;;;20.13;9.25;;;14.20;99.90;;;;;;4970322;28;20378;-85
2022/05/14 06:46:40;;;;;;;25.80;9.32;;;14.20;99.90;;;;;;4964796;28;20058;-86
2022/05/14 06:49:06;;;;;;;22.88;9.90;;;14.20;99.90;;;;;;4970588;28;20058;-82
2022/05/14 06:51:33;;;;;;;19.02;9.38;;;14.20;99.90;;;;;;4976241;28;20117;-83
2022/05/14 06:54:03;;;;;;;22.73;10.25;;;14.30;99.90;;;;;;4971009;28;20081;-83
2022/05/14 06:56:31;;;;;;;24.55;10.63;;;14.40;99.90;;;;;;4975280;28;20022;-83
2022/05/14 06:58:58;;;;;;;21.38;9.20;;;14.40;99.90;;;;;;4972466;28;20037;-83
2022/05/14 07:01:24;;;;;;;21.63;9.77;;;14.50;99.90;;;;;;4985706;28;20064;-83
2022/05/14 07:06:43;;;;;;;21.85;9.15;;;14.60;99.90;;;;;;4990440;28;20085;-83
2022/05/14 07:09:16;;;;;;;24.38;9.32;;;14.70;99.90;;;;;;4973508;28;20430;-83
2022/05/14 07:11:46;;;;;;;19.98;8.43;;;14.90;99.90;;;;;;4970360;28;20501;-83
2022/05/14 07:14:13;;;;;;;20.58;8.80;;;15.00;99.90;;;;;;4968703;28;20034;-82
2022/05/14 07:16:39;;;;;;;18.15;9.82;;;15.00;99.90;;;;;;4968958;28;20034;-82
2022/05/14 07:19:06;;;;;;;24.38;9.88;;;15.00;99.90;;;;;;4957943;28;20022;-83
2022/05/14 07:21:33;;;;;;;24.50;9.35;;;15.10;99.90;;;;;;4974872;28;20125;-83
2022/05/14 07:23:59;;;;;;;21.30;8.93;;;15.20;99.90;;;;;;4967647;28;20045;-83
2022/05/14 07:26:27;;;;;;;24.63;9.77;;;15.20;99.90;;;;;;4971252;28;20027;-83
2022/05/14 07:28:52;;;;;;;19.08;9.95;;;15.30;99.90;;;;;;4969402;28;20391;-82
2022/05/14 07:31:18;;;;;;;29.65;9.20;;;15.40;99.90;;;;;;4972566;28;20035;-82
2022/05/14 07:33:44;;;;;;;30.17;9.05;;;15.50;99.90;;;;;;4970608;28;20023;-82
2022/05/14 07:36:17;;;;;;;24.88;10.85;;;15.50;99.90;;;;;;4984057;28;20030;-83
2022/05/14 07:38:43;;;;;;;23.20;9.63;;;15.60;99.90;;;;;;4985677;28;20026;-83
2022/05/14 07:41:11;;;;;;;23.92;8.93;;;15.70;99.90;;;;;;4968619;28;20042;-82
2022/05/14 07:43:39;;;;;;;21.50;9.65;;;15.80;99.90;;;;;;4974149;28;20030;-83
2022/05/14 07:46:09;;;;;;;20.25;8.90;;;15.90;99.90;;;;;;4965327;28;20037;-83
2022/05/14 07:48:37;;;;;;;26.02;9.00;;;16.00;99.90;;;;;;4971043;28;20539;-83
2022/05/14 07:51:05;;;;;;;26.33;8.93;;;16.10;99.90;;;;;;4959112;28;20117;-83
2022/05/14 07:53:31;;;;;;;19.17;9.18;;;16.30;99.90;;;;;;4972808;28;20395;-83
2022/05/14 07:55:58;;;;;;;22.15;9.45;;;16.40;99.90;;;;;;4974523;28;20097;-82
2022/05/14 07:58:24;;;;;;;25.65;8.60;;;16.50;99.90;;;;;;4961508;28;20395;-82
2022/05/14 08:00:50;;;;;;;17.65;7.60;;;16.60;99.90;;;;;;4971613;28;20050;-83
2022/05/14 08:03:16;;;;;;;20.90;8.55;;;16.70;99.90;;;;;;4971983;28;20442;-83
2022/05/14 08:05:42;;;;;;;20.10;8.45;;;16.80;99.90;;;;;;4969885;28;20030;-83
2022/05/14 08:08:08;;;;;;;21.33;8.43;;;16.90;99.90;;;;;;4974639;28;20077;-83
2022/05/14 08:10:34;;;;;;;23.77;8.35;;;16.90;99.90;;;;;;4972384;28;20128;-83
2022/05/14 08:13:00;;;;;;;16.83;8.13;;;17.00;99.90;;;;;;4973818;28;20029;-82
2022/05/14 08:15:27;;;;;;;17.80;7.22;;;17.00;99.90;;;;;;4970499;28;20031;-82
2022/05/14 08:17:53;;;;;;;21.95;8.18;;;17.20;99.90;;;;;;4966070;28;20450;-82
2022/05/14 08:20:19;;;;;;;20.30;7.70;;;17.30;99.90;;;;;;4970385;28;20119;-83
2022/05/14 08:25:29;;;;;;;21.77;7.80;;;17.30;99.90;;;;;;4991758;28;20089;-82
2022/05/14 08:27:56;;;;;;;19.83;7.82;;;17.40;99.90;;;;;;4974299;28;20506;-83
2022/05/14 08:30:28;;;;;;;17.67;7.70;;;17.50;99.90;;;;;;4972021;28;20383;-83
2022/05/14 08:32:54;;;;;;;20.52;7.40;;;17.60;99.90;;;;;;4969616;28;20376;-82
2022/05/14 08:35:20;;;;;;;19.42;8.55;;;17.60;99.90;;;;;;4973568;28;20057;-83
2022/05/14 08:37:48;;;;;;;20.90;7.78;;;17.70;99.90;;;;;;4972162;28;20402;-82
2022/05/14 08:40:29;;;;;;;21.98;7.88;;;17.70;99.90;;;;;;4968507;28;20449;-85
2022/05/14 08:42:58;;;;;;;19.92;6.80;;;17.80;99.90;;;;;;4984690;28;20395;-85
2022/05/14 08:45:26;;;;;;;16.00;6.47;;;17.90;99.90;;;;;;4957642;28;20029;-86
2022/05/14 08:47:56;;;;;;;17.73;6.38;;;18.10;99.90;;;;;;4968842;28;20026;-85
2022/05/14 08:50:30;;;;;;;17.55;6.78;;;18.20;99.90;;;;;;4984943;28;20114;-86
2022/05/14 08:53:00;;;;;;;14.68;6.90;;;18.40;99.90;;;;;;4989279;28;20526;-85
2022/05/14 08:55:31;;;;;;;16.95;6.78;;;18.50;99.90;;;;;;4974920;28;20022;-86
2022/05/14 08:58:03;;;;;;;16.55;7.35;;;18.70;99.90;;;;;;4973295;28;20520;-86
2022/05/14 09:00:29;;;;;;;13.70;6.55;;;18.90;99.90;;;;;;4977548;28;20060;-86
2022/05/14 09:02:55;;;;;;;15.95;7.05;;;19.00;99.90;;;;;;4975167;28;20054;-86
2022/05/14 09:05:27;;;;;;;22.83;6.35;;;19.00;99.60;;;;;;4977928;28;20034;-86
2022/05/14 09:07:53;;;;;;;14.57;5.35;;;19.10;99.40;;;;;;4977610;28;20034;-86
2022/05/14 09:10:33;;;;;;;20.20;6.53;;;19.10;99.00;;;;;;4977044;28;20076;-86
2022/05/14 09:13:01;;;;;;;16.35;5.88;;;19.10;98.50;;;;;;4974399;28;20065;-86
2022/05/14 09:15:31;;;;;;;15.63;5.22;;;19.20;98.40;;;;;;4979290;28;20084;-86
2022/05/14 09:18:06;;;;;;;16.00;4.40;;;19.30;98.20;;;;;;4976175;28;20445;-86
2022/05/14 09:20:44;;;;;;;20.58;4.80;;;19.30;97.50;;;;;;4976564;28;20384;-86
2022/05/14 09:23:10;;;;;;;17.45;6.47;;;19.40;97.00;;;;;;4977054;28;20042;-86
2022/05/14 09:25:40;;;;;;;12.43;4.72;;;19.30;96.80;;;;;;4977413;28;20088;-85
2022/05/14 09:28:23;;;;;;;14.27;5.03;;;19.30;96.60;;;;;;4976109;28;20033;-86
2022/05/14 09:30:58;;;;;;;13.43;5.20;;;19.40;96.40;;;;;;4974703;28;20077;-86
2022/05/14 09:33:28;;;;;;;13.60;4.95;;;19.60;96.30;;;;;;4969606;28;20383;-86
2022/05/14 09:35:59;;;;;;;14.05;3.60;;;19.70;96.10;;;;;;4958532;28;20023;-86
2022/05/14 09:38:26;;;;;;;16.77;4.35;;;19.80;95.80;;;;;;4985326;28;20023;-86
2022/05/14 09:40:55;;;;;;;13.23;4.43;;;19.90;95.10;;;;;;4964634;28;20062;-86
2022/05/14 09:43:40;;;;;;;12.07;4.65;;;19.90;95.00;;;;;;4975686;28;20018;-86
2022/05/14 09:46:12;;;;;;;15.93;3.90;;;20.00;95.00;;;;;;4976875;28;20034;-86
2022/05/14 09:48:51;;;;;;;12.88;4.20;;;20.00;94.50;;;;;;4973778;28;20038;-87
2022/05/14 09:51:38;;;;;;;11.65;5.05;;;20.10;94.40;;;;;;4964324;28;20170;-86
2022/05/14 09:54:30;;;;;;;15.10;4.15;;;20.10;94.00;;;;;;4979722;28;20034;-86
2022/05/14 09:57:01;;;;;;;10.35;3.97;;;20.30;93.60;;;;;;4984675;28;20062;-86
2022/05/14 09:59:33;;;;;;;14.85;4.13;;;20.40;92.90;;;;;;4994455;28;20038;-86
2022/05/14 10:02:04;;;;;;;12.50;3.77;;;20.50;92.70;;;;;;4971999;28;20113;-86
2022/05/14 10:04:42;;;;;;;9.88;2.88;;;20.50;92.20;;;;;;4974634;28;20026;-85
2022/05/14 10:07:36;;;;;;;13.52;4.57;;;20.60;91.50;;;;;;4973272;28;20034;-86
2022/05/14 10:10:46;;;;;;;17.08;5.20;;;20.60;91.10;;;;;;4970012;28;20474;-84
2022/05/14 10:13:36;;;;;;;19.27;5.10;;;20.70;91.40;;;;;;4917358;29;20396;-84
2022/05/14 10:16:16;;;;;;;14.75;5.90;;;20.80;91.10;;;;;;4971946;28;20439;-86
2022/05/14 10:19:03;;;;;;;13.65;4.60;;;20.80;90.90;;;;;;4990817;28;20079;-85
2022/05/14 10:21:41;;;;;;;14.73;4.65;;;20.90;91.10;;;;;;4966237;28;20050;-86
2022/05/14 10:27:01;;;;;;;11.27;3.20;;;20.90;90.50;;;;;;4992636;28;20041;-86
2022/05/14 10:29:45;;;;;;;12.63;3.38;;;21.00;90.30;;;;;;4962642;28;20038;-86
2022/05/14 10:32:17;;;;;;;11.88;3.53;;;21.00;89.80;;;;;;4973003;28;20038;-86
2022/05/14 10:35:08;;;;;;;17.17;4.47;;;21.10;90.00;;;;;;4971141;28;20038;-85
2022/05/14 10:37:50;;;;;;;13.18;3.55;;;21.20;90.30;;;;;;4978521;28;20018;-84
2022/05/14 10:40:40;;;;;;;12.02;2.38;;;21.50;88.90;;;;;;4986897;28;20034;-85
2022/05/14 10:43:29;;;;;;;11.02;2.40;;;21.60;87.50;;;;;;4980343;28;20129;-85
2022/05/14 10:45:56;;;;;;;12.95;2.15;;;21.60;86.70;;;;;;4986566;28;20372;-84
2022/05/14 10:48:42;;;;;;;10.98;2.88;;;21.70;84.60;;;;;;4969588;28;20023;-86
2022/05/14 10:51:10;;;;;;;14.40;3.63;;;21.90;84.10;;;;;;4961430;28;20034;-86
2022/05/14 10:53:40;;;;;;;12.55;3.38;;;22.10;83.30;;;;;;4966220;28;20058;-86
2022/05/14 10:56:34;;;;;;;11.55;2.95;;;22.20;82.70;;;;;;4964729;28;20029;-86
2022/05/14 10:59:12;;;;;;;9.40;2.25;;;22.30;81.90;;;;;;4967066;28;20088;-86
2022/05/14 11:01:41;;;;;;;10.32;1.63;;;22.10;81.30;;;;;;4975710;28;20137;-86
2022/05/14 11:04:13;;;;;;;11.40;2.65;;;22.10;82.20;;;;;;4984695;28;20030;-86
2022/05/14 11:07:02;;;;;;;9.23;2.60;;;22.30;80.90;;;;;;4962783;28;20030;-86
2022/05/14 11:09:31;;;;;;;8.43;1.90;;;22.60;78.80;;;;;;4970833;28;20045;-86
2022/05/14 11:12:20;;;;;;;8.13;2.38;;;22.70;77.70;;;;;;4973919;28;20023;-85
2022/05/14 11:14:50;;;;;;;10.50;2.20;;;22.80;77.00;;;;;;4979996;28;20042;-86
2022/05/14 11:17:32;;;;;;;13.45;2.83;;;22.90;76.30;;;;;;4975796;28;20084;-86
2022/05/14 11:20:04;;;;;;;11.63;2.78;;;22.80;75.20;;;;;;4974989;28;20041;-86
2022/05/14 11:22:39;;;;;;;5.63;1.60;;;22.70;75.00;;;;;;4976383;28;20446;-85
2022/05/14 11:25:16;;;;;;;9.10;2.28;;;22.60;74.40;;;;;;4973375;28;20097;-86
2022/05/14 11:27:52;;;;;;;10.23;2.22;;;22.50;72.60;;;;;;4961906;28;20054;-86
2022/05/14 11:30:47;;;;;;;8.77;2.17;;;22.50;71.70;;;;;;4985518;28;20033;-86
2022/05/14 11:33:33;;;;;;;8.68;2.17;;;22.60;72.20;;;;;;4974072;28;20076;-86
2022/05/14 11:36:17;;;;;;;12.65;2.60;;;22.60;70.80;;;;;;4968861;28;20030;-86
2022/05/14 11:38:47;;;;;;;12.35;2.78;;;22.50;70.50;;;;;;4961478;28;20030;-85
2022/05/14 11:41:31;;;;;;;11.15;2.25;;;22.40;71.20;;;;;;4993256;28;20034;-86
2022/05/14 11:43:57;;;;;;;11.38;3.08;;;22.60;70.10;;;;;;4975042;28;20471;-85
2022/05/14 11:46:50;;;;;;;10.13;2.45;;;22.90;70.60;;;;;;4975103;28;20418;-85
2022/05/14 11:49:44;;;;;;;11.13;2.60;;;22.90;70.30;;;;;;4974069;28;20280;-86
2022/05/14 11:52:19;;;;;;;12.75;3.28;;;22.90;69.80;;;;;;4951952;28;20042;-86
2022/05/14 11:54:51;;;;;;;8.30;2.50;;;23.00;68.60;;;;;;4956355;28;20077;-85
2022/05/14 11:57:27;;;;;;;7.70;1.85;;;23.20;67.90;;;;;;4968787;28;20030;-85
2022/05/14 12:00:06;;;;;;;10.00;2.08;;;23.40;68.00;;;;;;4966248;28;20030;-86
2022/05/14 12:02:37;;;;;;;11.60;2.50;;;23.60;67.20;;;;;;4975284;28;20130;-86
2022/05/14 12:05:06;;;;;;;11.55;2.80;;;23.70;67.40;;;;;;4970953;28;20034;-86
2022/05/14 12:07:41;;;;;;;8.23;1.85;;;23.90;66.50;;;;;;4961482;28;20503;-86
2022/05/14 12:10:18;;;;;;;9.80;3.67;;;24.00;66.10;;;;;;4970719;28;20034;-86
2022/05/14 12:12:56;;;;;;;9.02;2.20;;;24.00;64.40;;;;;;4972549;28;20049;-86
2022/05/14 12:15:24;;;;;;;14.00;3.38;;;23.80;64.70;;;;;;4974086;28;20049;-86
2022/05/14 12:17:53;;;;;;;12.02;2.92;;;23.90;64.70;;;;;;4972636;28;20058;-86
2022/05/14 12:20:31;;;;;;;10.57;2.22;;;23.90;64.60;;;;;;4973096;28;20491;-86
2022/05/14 12:22:59;;;;;;;9.45;2.50;;;23.80;64.50;;;;;;4972636;28;20043;-86
2022/05/14 12:25:46;;;;;;;13.07;2.95;;;23.70;64.50;;;;;;4972302;28;20071;-86
2022/05/14 12:28:23;;;;;;;14.63;2.95;;;23.50;65.10;;;;;;4976161;28;20030;-86
2022/05/14 12:34:02;;;;;;;13.57;3.22;;;23.90;65.20;;;;;;4993938;28;20430;-86
2022/05/14 12:36:40;;;;;;;13.60;3.10;;;24.10;63.70;;;;;;4968481;28;20031;-86
2022/05/14 12:39:16;;;;;;;6.38;1.80;;;24.00;63.60;;;;;;4978650;28;20033;-86
2022/05/14 12:41:44;;;;;;;10.73;2.25;;;24.00;63.50;;;;;;4995687;28;20070;-83
2022/05/14 12:44:41;;;;;;;7.13;2.30;;;24.10;63.00;;;;;;4991699;28;20022;-84
2022/05/14 12:47:07;;;;;;;10.35;2.30;;;24.40;62.30;;;;;;4994961;28;20042;-84
2022/05/14 12:49:41;;;;;;;9.10;2.08;;;24.40;62.30;;;;;;4975193;28;20023;-86
2022/05/14 12:52:11;;;;;;;9.32;2.13;;;24.50;62.40;;;;;;4963814;28;20041;-85
2022/05/14 12:54:53;;;;;;;8.00;2.42;;;24.50;62.00;;;;;;4983044;28;20034;-86
2022/05/14 12:57:20;;;;;;;9.25;2.33;;;24.50;62.00;;;;;;4978871;28;20088;-84
2022/05/14 12:59:45;;;;;;;11.02;3.20;;;24.40;62.00;;;;;;4969618;28;20034;-84
2022/05/14 13:02:20;;;;;;;8.80;2.95;;;24.50;61.60;;;;;;4964979;28;20041;-84
2022/05/14 13:05:03;;;;;;;13.70;3.08;;;24.40;62.00;;;;;;4978093;28;20031;-84
2022/05/14 13:07:31;;;;;;;9.43;2.85;;;24.50;61.30;;;;;;4976157;28;20027;-86
2022/05/14 13:09:57;;;;;;;12.23;2.72;;;24.60;61.80;;;;;;4994273;28;20038;-86
2022/05/14 13:12:29;;;;;;;10.52;2.95;;;24.50;61.60;;;;;;4976156;28;20026;-86
2022/05/14 13:14:56;;;;;;;;;;;24.40;61.00;;;;;;4978809;28;20030;-85
2022/05/14 13:17:30;;;;;;;8.60;1.92;;;24.30;61.60;;;;;;4978337;28;19906;-86
2022/05/14 13:19:57;;;;;;;8.82;2.40;;;24.40;61.20;;;;;;4976658;28;20034;-86